Time;durP1;ratioP1;P1;durP2;ratioP2;P2;SDS_P1;SDS_P2;PMS_P1;PMS_P2;Temp;Humidity;BMP_temperature;BMP_pressure;BME280_temperature;BME280_humidity;BME280_pressure;Samples;Min_cycle;Max_cycle;Signal;HPM_P1;HPM_P2
2022/11/27 00:01:51;;;;;;;14.52;5.55;;;2.20;99.90;;;;;;21307945;27;20023;-78
2022/11/27 00:11:52;;;;;;;16.55;5.88;;;2.10;99.90;;;;;;21292719;27;20079;-79
2022/11/27 00:21:53;;;;;;;12.50;6.18;;;2.20;99.90;;;;;;21273824;27;20111;-78
2022/11/27 00:31:55;;;;;;;15.13;6.90;;;2.10;99.90;;;;;;21326019;27;20034;-78
2022/11/27 00:41:55;;;;;;;21.00;6.30;;;2.20;99.90;;;;;;21292622;27;20031;-79
2022/11/27 00:51:56;;;;;;;17.75;6.93;;;2.20;99.90;;;;;;21288827;27;20033;-78
2022/11/27 01:01:57;;;;;;;15.20;6.93;;;2.20;99.90;;;;;;21285477;27;20059;-78
2022/11/27 01:11:58;;;;;;;10.88;5.65;;;2.20;99.90;;;;;;21305639;27;20047;-78
2022/11/27 01:21:58;;;;;;;17.58;6.63;;;2.20;99.90;;;;;;21300696;27;20031;-78
2022/11/27 01:31:59;;;;;;;14.50;5.70;;;2.30;99.90;;;;;;21300582;27;20072;-78
2022/11/27 01:42:00;;;;;;;18.33;6.22;;;2.40;99.90;;;;;;21303864;27;20018;-78
2022/11/27 01:52:06;;;;;;;14.13;5.88;;;2.40;99.90;;;;;;21263788;27;20028;-79
2022/11/27 02:02:07;;;;;;;17.17;5.88;;;2.40;99.90;;;;;;21234635;27;20038;-78
2022/11/27 02:12:24;;;;;;;15.32;6.35;;;2.40;99.90;;;;;;21258247;27;20027;-78
2022/11/27 02:22:40;;;;;;;12.73;5.10;;;2.40;99.90;;;;;;21310941;27;20034;-78
2022/11/27 02:32:52;;;;;;;10.15;4.20;;;2.50;99.90;;;;;;21327207;27;20079;-78
2022/11/27 02:43:07;;;;;;;8.48;4.32;;;2.60;99.90;;;;;;21343732;27;20469;-78
2022/11/27 02:53:14;;;;;;;24.13;6.70;;;2.70;99.90;;;;;;21342210;27;20038;-78
2022/11/27 03:03:20;;;;;;;23.48;6.38;;;2.80;99.90;;;;;;21344036;27;20033;-78
2022/11/27 03:13:20;;;;;;;22.83;6.85;;;2.80;99.90;;;;;;21348920;27;20083;-79
2022/11/27 03:23:21;;;;;;;16.15;6.32;;;2.80;99.90;;;;;;21356671;27;20054;-78
2022/11/27 03:33:22;;;;;;;27.45;7.28;;;2.70;99.90;;;;;;21361301;27;20027;-79
2022/11/27 03:43:28;;;;;;;21.20;7.25;;;2.70;99.90;;;;;;21355908;27;20118;-78
2022/11/27 03:53:51;;;;;;;23.85;9.45;;;2.70;99.90;;;;;;21317181;27;20039;-79
2022/11/27 04:03:52;;;;;;;23.15;8.00;;;2.70;99.90;;;;;;21334478;27;20082;-78
2022/11/27 04:13:53;;;;;;;18.42;8.32;;;2.70;99.90;;;;;;21332516;27;20035;-79
2022/11/27 04:23:54;;;;;;;27.35;9.45;;;2.80;99.90;;;;;;21330622;27;20030;-79
2022/11/27 04:33:56;;;;;;;30.10;10.10;;;2.90;99.90;;;;;;21350526;27;20489;-79
2022/11/27 04:43:57;;;;;;;30.42;9.75;;;2.90;99.90;;;;;;21330947;27;20058;-78
2022/11/27 04:53:58;;;;;;;22.13;6.75;;;3.00;99.90;;;;;;21347691;27;20110;-78
2022/11/27 05:03:59;;;;;;;28.10;7.80;;;2.80;99.90;;;;;;21347178;27;20034;-78
2022/11/27 05:14:15;;;;;;;17.23;6.50;;;2.70;99.90;;;;;;21344173;27;20096;-78
2022/11/27 05:24:19;;;;;;;19.58;7.40;;;2.60;99.90;;;;;;21327075;27;20038;-78
2022/11/27 05:34:19;;;;;;;15.20;6.70;;;2.60;99.90;;;;;;21326660;27;20035;-78
2022/11/27 05:44:20;;;;;;;14.70;6.95;;;2.60;99.90;;;;;;21324745;27;20038;-78
2022/11/27 05:54:21;;;;;;;19.30;6.60;;;2.50;99.90;;;;;;21341948;27;20031;-78
2022/11/27 06:04:22;;;;;;;17.42;7.28;;;2.50;99.90;;;;;;21343409;27;20126;-78
2022/11/27 06:14:23;;;;;;;20.63;7.43;;;2.60;99.90;;;;;;21343025;27;20026;-78
2022/11/27 06:24:23;;;;;;;13.18;5.68;;;2.60;99.90;;;;;;21343479;27;20035;-79
2022/11/27 06:34:24;;;;;;;15.55;5.30;;;2.60;99.90;;;;;;21342934;27;20035;-78
2022/11/27 06:44:25;;;;;;;12.90;5.75;;;2.70;99.90;;;;;;21342809;27;20532;-78
2022/11/27 06:54:26;;;;;;;16.70;5.97;;;2.70;99.90;;;;;;21339745;27;20023;-78
2022/11/27 07:04:26;;;;;;;14.90;5.78;;;2.70;99.90;;;;;;21339812;27;20058;-79
2022/11/27 07:14:27;;;;;;;17.52;6.50;;;2.80;99.90;;;;;;21276709;27;20122;-78
2022/11/27 07:24:28;;;;;;;18.33;6.57;;;2.80;99.90;;;;;;21294212;27;20508;-77
2022/11/27 07:34:29;;;;;;;22.80;8.40;;;2.90;99.90;;;;;;21331670;27;20022;-76
2022/11/27 07:44:30;;;;;;;23.73;9.05;;;3.10;99.90;;;;;;21307850;27;20039;-77
2022/11/27 07:54:30;;;;;;;37.22;11.57;;;3.10;99.90;;;;;;21326027;27;20079;-77
2022/11/27 08:04:31;;;;;;;37.17;12.27;;;3.30;99.90;;;;;;21336436;27;20041;-77
2022/11/27 08:14:32;;;;;;;29.42;11.55;;;3.30;99.90;;;;;;21323519;27;20035;-77
2022/11/27 08:24:33;;;;;;;34.30;12.45;;;3.40;99.90;;;;;;21336961;27;20054;-78
2022/11/27 08:34:34;;;;;;;31.38;12.18;;;3.40;99.90;;;;;;21345663;27;20504;-78
2022/11/27 08:44:34;;;;;;;33.13;12.52;;;3.40;99.90;;;;;;21344597;27;20022;-78
2022/11/27 08:54:35;;;;;;;34.50;13.48;;;3.50;99.90;;;;;;21326379;27;20140;-78
2022/11/27 09:04:36;;;;;;;33.75;14.48;;;3.70;99.90;;;;;;21347506;27;20034;-78
2022/11/27 09:14:37;;;;;;;31.90;13.65;;;3.80;99.90;;;;;;21327096;27;20042;-79
2022/11/27 09:24:38;;;;;;;35.33;12.52;;;3.80;99.90;;;;;;21352110;27;20019;-78
2022/11/27 09:34:39;;;;;;;26.88;12.32;;;4.00;99.90;;;;;;21333881;27;20031;-79
2022/11/27 09:44:48;;;;;;;27.40;11.40;;;4.00;99.90;;;;;;21332456;27;20038;-79
2022/11/27 09:54:58;;;;;;;26.52;11.93;;;4.20;99.90;;;;;;21331631;27;20098;-79
2022/11/27 10:05:03;;;;;;;30.27;11.97;;;4.50;99.90;;;;;;21318907;27;20485;-80
2022/11/27 10:15:10;;;;;;;24.08;10.75;;;4.40;99.90;;;;;;21360122;27;20038;-79
2022/11/27 10:25:24;;;;;;;25.38;11.00;;;4.40;99.90;;;;;;21362717;27;20022;-79
2022/11/27 10:35:29;;;;;;;23.70;10.05;;;4.40;99.90;;;;;;21328772;27;20508;-80
2022/11/27 10:45:56;;;;;;;26.15;10.07;;;4.50;99.90;;;;;;21348684;27;20616;-80
2022/11/27 10:56:20;;;;;;;25.70;10.35;;;4.50;99.90;;;;;;21351091;27;20125;-80
2022/11/27 11:06:24;;;;;;;23.58;9.90;;;4.70;99.90;;;;;;21332240;27;20056;-80
2022/11/27 11:16:29;;;;;;;27.08;10.63;;;4.80;99.90;;;;;;21333002;27;20076;-78
2022/11/27 11:26:38;;;;;;;22.10;10.05;;;5.00;99.90;;;;;;21339293;27;20138;-80
2022/11/27 11:36:39;;;;;;;25.52;10.25;;;5.20;99.90;;;;;;21350770;27;20018;-80
2022/11/27 11:46:49;;;;;;;22.98;10.35;;;5.40;99.90;;;;;;21356063;27;20098;-79
2022/11/27 11:56:51;;;;;;;25.90;11.43;;;5.20;99.90;;;;;;21333479;27;20048;-79
2022/11/27 12:06:52;;;;;;;26.65;10.80;;;5.20;99.90;;;;;;21359397;27;20019;-78
2022/11/27 12:17:17;;;;;;;28.10;13.50;;;5.40;99.90;;;;;;21337475;27;20046;-79
2022/11/27 12:27:50;;;;;;;25.05;10.70;;;5.70;99.90;;;;;;21338457;27;20027;-78
2022/11/27 12:38:12;;;;;;;23.33;11.68;;;5.80;99.90;;;;;;21336235;27;20083;-79
2022/11/27 12:48:13;;;;;;;;;;;5.90;99.90;;;;;;21316304;27;20408;-79
2022/11/27 12:58:29;;;;;;;22.60;10.47;;;5.70;99.90;;;;;;21244946;27;19940;-78
2022/11/27 13:08:43;;;;;;;37.42;13.73;;;5.60;99.90;;;;;;21252782;27;20023;-78
2022/11/27 13:18:54;;;;;;;33.97;17.95;;;5.40;99.90;;;;;;21351633;27;20066;-78
2022/11/27 13:29:00;;;;;;;25.77;11.88;;;5.40;99.90;;;;;;21352362;27;20076;-78
2022/11/27 13:39:01;;;;;;;21.05;10.52;;;5.40;99.90;;;;;;21350390;27;20034;-78
2022/11/27 13:49:04;;;;;;;21.70;10.00;;;5.20;99.90;;;;;;21315245;27;20046;-78
2022/11/27 13:59:12;;;;;;;21.08;10.07;;;5.20;99.90;;;;;;21261960;27;20046;-78
2022/11/27 14:09:13;;;;;;;30.88;10.95;;;5.20;99.90;;;;;;21272742;27;20031;-78
2022/11/27 14:19:33;;;;;;;25.30;12.48;;;5.10;99.90;;;;;;21327952;27;20041;-77
2022/11/27 14:29:33;;;;;;;27.88;11.88;;;5.10;99.90;;;;;;21255329;27;20114;-77
2022/11/27 14:39:35;;;;;;;;;;;5.20;99.90;;;;;;21247771;27;20062;-77
2022/11/27 14:49:36;;;;;;;28.40;12.90;;;5.10;99.90;;;;;;21288439;27;19911;-76
2022/11/27 14:59:38;;;;;;;;;;;5.10;99.90;;;;;;21316219;27;20707;-77
2022/11/27 15:09:44;;;;;;;28.57;12.17;;;5.00;99.90;;;;;;21304025;27;20298;-77
2022/11/27 15:19:45;;;;;;;32.85;13.20;;;4.90;99.90;;;;;;21302577;27;20288;-76
2022/11/27 15:30:07;;;;;;;41.45;14.98;;;4.90;99.90;;;;;;21337045;27;20034;-77
2022/11/27 15:40:36;;;;;;;37.90;17.23;;;4.90;99.90;;;;;;21347512;27;20443;-77
2022/11/27 15:50:36;;;;;;;40.40;18.15;;;4.80;99.90;;;;;;21355521;27;20098;-77
2022/11/27 16:00:38;;;;;;;34.15;14.50;;;4.70;99.90;;;;;;21348515;27;20026;-77
2022/11/27 16:10:40;;;;;;;32.60;14.48;;;4.70;99.90;;;;;;21328310;27;20027;-77
2022/11/27 16:20:41;;;;;;;26.20;12.52;;;4.60;99.90;;;;;;21308720;27;20042;-77
2022/11/27 16:30:42;;;;;;;28.90;13.07;;;4.50;99.90;;;;;;21240738;27;20031;-77
2022/11/27 16:40:44;;;;;;;30.42;13.45;;;4.50;99.90;;;;;;21240901;27;20486;-79
2022/11/27 16:50:44;;;;;;;29.27;12.75;;;4.50;99.90;;;;;;21278184;27;20047;-79
2022/11/27 17:00:46;;;;;;;26.90;13.05;;;4.60;99.90;;;;;;21248563;27;20027;-77
2022/11/27 17:10:46;;;;;;;40.90;18.55;;;4.60;99.90;;;;;;21256242;27;20034;-77
2022/11/27 17:20:47;;;;;;;;;;;4.70;99.90;;;;;;21272187;27;20039;-77
2022/11/27 17:30:48;;;;;;;23.65;12.07;;;4.60;99.90;;;;;;21322183;27;19917;-77
2022/11/27 17:40:49;;;;;;;26.25;12.05;;;4.70;99.90;;;;;;21339262;27;20079;-77
2022/11/27 17:50:50;;;;;;;25.48;11.90;;;4.60;99.90;;;;;;21343594;27;20031;-79
2022/11/27 18:00:51;;;;;;;29.08;13.35;;;4.50;99.90;;;;;;21328510;27;20033;-77
2022/11/27 18:10:52;;;;;;;35.97;13.23;;;4.50;99.90;;;;;;21337089;27;20030;-79
2022/11/27 18:20:53;;;;;;;32.10;14.75;;;4.50;99.90;;;;;;21269893;27;20060;-79
2022/11/27 18:30:54;;;;;;;26.13;13.73;;;4.50;99.90;;;;;;21270393;27;20101;-79
2022/11/27 18:40:55;;;;;;;34.47;15.88;;;4.40;99.90;;;;;;21251845;27;20066;-79
2022/11/27 18:51:14;;;;;;;30.60;14.07;;;4.40;99.90;;;;;;21316675;27;20515;-79
2022/11/27 19:01:19;;;;;;;27.10;13.73;;;4.30;99.90;;;;;;21335403;27;20113;-79
2022/11/27 19:11:22;;;;;;;26.70;12.25;;;4.40;99.90;;;;;;21307645;27;20027;-77
2022/11/27 19:21:25;;;;;;;30.02;12.30;;;4.30;99.90;;;;;;21335002;27;20065;-81
2022/11/27 19:31:32;;;;;;;32.05;13.52;;;4.30;99.90;;;;;;21314079;27;20022;-76
2022/11/27 19:41:33;;;;;;;28.83;14.25;;;4.30;99.90;;;;;;21333803;27;20031;-77
2022/11/27 19:51:36;;;;;;;30.35;13.98;;;4.30;99.90;;;;;;21315960;27;20083;-78
2022/11/27 20:01:38;;;;;;;29.00;13.77;;;4.30;99.90;;;;;;21338725;27;20090;-79
2022/11/27 20:11:39;;;;;;;31.15;13.45;;;4.30;99.90;;;;;;21337334;27;20029;-79
2022/11/27 20:21:41;;;;;;;27.70;12.40;;;4.30;99.90;;;;;;21353716;27;20035;-78
2022/11/27 20:31:43;;;;;;;27.17;12.85;;;4.30;99.90;;;;;;21335421;27;20046;-79
2022/11/27 20:41:44;;;;;;;28.52;13.20;;;4.30;99.90;;;;;;21345298;27;20030;-78
2022/11/27 20:51:47;;;;;;;29.27;13.60;;;4.30;99.90;;;;;;21324062;27;20027;-82
2022/11/27 21:01:48;;;;;;;29.38;14.05;;;4.20;99.90;;;;;;21309507;27;20065;-82
2022/11/27 21:11:49;;;;;;;29.08;12.85;;;4.20;99.90;;;;;;21323177;27;20022;-78
2022/11/27 21:21:51;;;;;;;39.60;13.68;;;4.20;99.90;;;;;;21299565;27;20052;-78
2022/11/27 21:31:53;;;;;;;28.70;14.13;;;4.20;99.90;;;;;;21285675;27;20019;-81
2022/11/27 21:41:55;;;;;;;25.08;12.25;;;4.20;99.90;;;;;;21291992;27;20378;-79
2022/11/27 21:51:56;;;;;;;28.55;13.43;;;4.20;99.90;;;;;;21280569;27;20076;-79
2022/11/27 22:02:05;;;;;;;30.02;14.13;;;4.20;99.90;;;;;;21286125;27;20031;-81
2022/11/27 22:12:06;;;;;;;29.77;13.20;;;4.20;99.90;;;;;;21305111;27;20026;-78
2022/11/27 22:22:07;;;;;;;28.67;14.68;;;4.10;99.90;;;;;;21339867;27;20071;-78
2022/11/27 22:32:07;;;;;;;32.03;13.88;;;4.10;99.90;;;;;;21277797;27;20026;-77
2022/11/27 22:42:10;;;;;;;30.67;14.25;;;4.10;99.90;;;;;;21262108;27;20027;-77
2022/11/27 22:52:12;;;;;;;34.30;15.38;;;4.00;99.90;;;;;;21301013;27;20031;-80
2022/11/27 23:02:13;;;;;;;32.85;13.88;;;4.00;99.90;;;;;;21308325;27;20373;-78
2022/11/27 23:12:14;;;;;;;28.42;13.57;;;4.00;99.90;;;;;;21321090;27;20042;-78
2022/11/27 23:22:15;;;;;;;33.13;14.40;;;4.00;99.90;;;;;;21337293;27;20400;-78
2022/11/27 23:32:15;;;;;;;35.42;14.25;;;4.00;99.90;;;;;;21326145;27;20031;-78
2022/11/27 23:42:16;;;;;;;31.40;15.02;;;4.00;99.90;;;;;;21351377;27;20420;-78
2022/11/27 23:52:17;;;;;;;33.28;15.95;;;4.00;99.90;;;;;;21334217;27;20031;-80
